sensor_id;sensor_type;location;lat;lon;timestamp;P1;durP1;ratioP1;P2;durP2;ratioP2
75297;SDS011;63896;45.990;18.688;2022-12-11T00:00:19;10.50;;;5.00;;
75297;SDS011;63896;45.990;18.688;2022-12-11T00:03:22;8.53;;;4.60;;
75297;SDS011;63896;45.990;18.688;2022-12-11T00:06:25;10.60;;;5.03;;
75297;SDS011;63896;45.990;18.688;2022-12-11T00:09:27;10.32;;;4.95;;
75297;SDS011;63896;45.990;18.688;2022-12-11T00:12:31;10.35;;;5.63;;
75297;SDS011;63896;45.990;18.688;2022-12-11T00:15:34;6.00;;;3.43;;
75297;SDS011;63896;45.990;18.688;2022-12-11T00:18:39;9.33;;;4.87;;
75297;SDS011;63896;45.990;18.688;2022-12-11T00:21:42;8.85;;;4.15;;
75297;SDS011;63896;45.990;18.688;2022-12-11T00:24:44;8.05;;;3.85;;
75297;SDS011;63896;45.990;18.688;2022-12-11T00:27:47;6.90;;;3.45;;
75297;SDS011;63896;45.990;18.688;2022-12-11T00:30:50;7.13;;;4.07;;
75297;SDS011;63896;45.990;18.688;2022-12-11T00:33:53;6.67;;;3.27;;
75297;SDS011;63896;45.990;18.688;2022-12-11T00:36:56;6.30;;;3.08;;
75297;SDS011;63896;45.990;18.688;2022-12-11T00:40:00;6.93;;;3.33;;
75297;SDS011;63896;45.990;18.688;2022-12-11T00:43:04;8.20;;;3.80;;
75297;SDS011;63896;45.990;18.688;2022-12-11T00:46:07;7.60;;;3.17;;
75297;SDS011;63896;45.990;18.688;2022-12-11T00:49:11;7.30;;;3.30;;
75297;SDS011;63896;45.990;18.688;2022-12-11T00:52:14;6.80;;;3.60;;
75297;SDS011;63896;45.990;18.688;2022-12-11T00:55:19;7.85;;;3.50;;
75297;SDS011;63896;45.990;18.688;2022-12-11T00:58:22;3.97;;;1.90;;
75297;SDS011;63896;45.990;18.688;2022-12-11T01:01:26;4.60;;;2.37;;
75297;SDS011;63896;45.990;18.688;2022-12-11T01:04:29;5.13;;;2.57;;
75297;SDS011;63896;45.990;18.688;2022-12-11T01:07:31;3.85;;;2.53;;
75297;SDS011;63896;45.990;18.688;2022-12-11T01:10:34;5.43;;;2.53;;
75297;SDS011;63896;45.990;18.688;2022-12-11T01:13:38;4.35;;;2.08;;
75297;SDS011;63896;45.990;18.688;2022-12-11T01:16:41;4.93;;;3.07;;
75297;SDS011;63896;45.990;18.688;2022-12-11T01:19:45;5.67;;;2.30;;
75297;SDS011;63896;45.990;18.688;2022-12-11T01:22:50;3.95;;;1.77;;
75297;SDS011;63896;45.990;18.688;2022-12-11T01:25:54;4.03;;;1.98;;
75297;SDS011;63896;45.990;18.688;2022-12-11T01:28:57;6.13;;;1.88;;
75297;SDS011;63896;45.990;18.688;2022-12-11T01:32:00;4.73;;;1.73;;
75297;SDS011;63896;45.990;18.688;2022-12-11T01:35:04;5.67;;;2.03;;
75297;SDS011;63896;45.990;18.688;2022-12-11T01:38:08;5.10;;;2.13;;
75297;SDS011;63896;45.990;18.688;2022-12-11T01:41:11;3.53;;;1.90;;
75297;SDS011;63896;45.990;18.688;2022-12-11T01:47:18;4.50;;;1.97;;
75297;SDS011;63896;45.990;18.688;2022-12-11T01:50:21;3.70;;;1.70;;
75297;SDS011;63896;45.990;18.688;2022-12-11T01:53:26;4.18;;;2.00;;
75297;SDS011;63896;45.990;18.688;2022-12-11T01:56:34;4.13;;;1.67;;
75297;SDS011;63896;45.990;18.688;2022-12-11T01:59:39;2.92;;;1.30;;
75297;SDS011;63896;45.990;18.688;2022-12-11T02:02:44;6.03;;;2.20;;
75297;SDS011;63896;45.990;18.688;2022-12-11T02:05:47;2.90;;;1.70;;
75297;SDS011;63896;45.990;18.688;2022-12-11T02:08:51;3.50;;;1.35;;
75297;SDS011;63896;45.990;18.688;2022-12-11T02:15:11;3.55;;;2.03;;
75297;SDS011;63896;45.990;18.688;2022-12-11T02:21:47;4.67;;;1.73;;
75297;SDS011;63896;45.990;18.688;2022-12-11T02:32:07;4.25;;;2.35;;
75297;SDS011;63896;45.990;18.688;2022-12-11T02:35:18;3.93;;;1.67;;
75297;SDS011;63896;45.990;18.688;2022-12-11T02:38:27;5.03;;;2.27;;
75297;SDS011;63896;45.990;18.688;2022-12-11T02:41:34;5.60;;;2.63;;
75297;SDS011;63896;45.990;18.688;2022-12-11T02:44:37;5.50;;;3.10;;
75297;SDS011;63896;45.990;18.688;2022-12-11T02:47:42;4.07;;;1.77;;
75297;SDS011;63896;45.990;18.688;2022-12-11T02:50:50;4.87;;;2.40;;
75297;SDS011;63896;45.990;18.688;2022-12-11T02:53:58;4.93;;;2.30;;
75297;SDS011;63896;45.990;18.688;2022-12-11T02:57:04;4.57;;;2.22;;
75297;SDS011;63896;45.990;18.688;2022-12-11T03:00:11;3.38;;;2.13;;
75297;SDS011;63896;45.990;18.688;2022-12-11T03:03:14;6.20;;;2.05;;
75297;SDS011;63896;45.990;18.688;2022-12-11T03:06:18;5.27;;;1.93;;
75297;SDS011;63896;45.990;18.688;2022-12-11T03:09:26;5.13;;;2.13;;
75297;SDS011;63896;45.990;18.688;2022-12-11T03:12:32;4.25;;;2.28;;
75297;SDS011;63896;45.990;18.688;2022-12-11T03:15:40;5.63;;;2.50;;
75297;SDS011;63896;45.990;18.688;2022-12-11T03:22:09;4.27;;;2.33;;
75297;SDS011;63896;45.990;18.688;2022-12-11T03:25:16;4.70;;;2.70;;
75297;SDS011;63896;45.990;18.688;2022-12-11T03:28:58;5.28;;;2.90;;
75297;SDS011;63896;45.990;18.688;2022-12-11T03:32:19;4.68;;;2.58;;
75297;SDS011;63896;45.990;18.688;2022-12-11T03:35:25;4.97;;;2.10;;
75297;SDS011;63896;45.990;18.688;2022-12-11T03:39:07;6.53;;;3.07;;
75297;SDS011;63896;45.990;18.688;2022-12-11T03:42:11;5.73;;;3.13;;
75297;SDS011;63896;45.990;18.688;2022-12-11T03:45:16;7.75;;;3.53;;
75297;SDS011;63896;45.990;18.688;2022-12-11T03:48:20;6.40;;;3.40;;
75297;SDS011;63896;45.990;18.688;2022-12-11T03:51:26;10.88;;;4.63;;
75297;SDS011;63896;45.990;18.688;2022-12-11T03:54:32;7.73;;;4.47;;
75297;SDS011;63896;45.990;18.688;2022-12-11T03:57:36;7.57;;;4.20;;
75297;SDS011;63896;45.990;18.688;2022-12-11T04:00:40;8.45;;;4.57;;
75297;SDS011;63896;45.990;18.688;2022-12-11T04:03:43;8.57;;;4.20;;
75297;SDS011;63896;45.990;18.688;2022-12-11T04:06:46;9.60;;;4.45;;
75297;SDS011;63896;45.990;18.688;2022-12-11T04:09:48;11.37;;;4.50;;
75297;SDS011;63896;45.990;18.688;2022-12-11T04:12:51;7.80;;;4.00;;
75297;SDS011;63896;45.990;18.688;2022-12-11T04:15:54;10.10;;;4.47;;
75297;SDS011;63896;45.990;18.688;2022-12-11T04:18:57;7.32;;;4.22;;
75297;SDS011;63896;45.990;18.688;2022-12-11T04:22:18;8.85;;;4.63;;
75297;SDS011;63896;45.990;18.688;2022-12-11T04:25:39;8.90;;;4.30;;
75297;SDS011;63896;45.990;18.688;2022-12-11T04:28:43;10.47;;;5.37;;
75297;SDS011;63896;45.990;18.688;2022-12-11T04:31:47;10.13;;;4.95;;
75297;SDS011;63896;45.990;18.688;2022-12-11T04:34:49;13.05;;;5.30;;
75297;SDS011;63896;45.990;18.688;2022-12-11T04:37:52;9.90;;;5.40;;
75297;SDS011;63896;45.990;18.688;2022-12-11T04:40:59;10.13;;;5.17;;
75297;SDS011;63896;45.990;18.688;2022-12-11T04:44:04;10.97;;;5.20;;
75297;SDS011;63896;45.990;18.688;2022-12-11T04:47:07;12.68;;;6.57;;
75297;SDS011;63896;45.990;18.688;2022-12-11T04:50:16;12.02;;;5.90;;
75297;SDS011;63896;45.990;18.688;2022-12-11T04:53:19;13.30;;;5.55;;
75297;SDS011;63896;45.990;18.688;2022-12-11T04:56:22;10.93;;;5.10;;
75297;SDS011;63896;45.990;18.688;2022-12-11T04:59:25;13.30;;;5.73;;
75297;SDS011;63896;45.990;18.688;2022-12-11T05:02:28;10.82;;;5.72;;
75297;SDS011;63896;45.990;18.688;2022-12-11T05:05:31;13.50;;;6.00;;
75297;SDS011;63896;45.990;18.688;2022-12-11T05:08:34;10.80;;;5.00;;
75297;SDS011;63896;45.990;18.688;2022-12-11T05:11:39;13.37;;;5.83;;
75297;SDS011;63896;45.990;18.688;2022-12-11T05:14:42;11.90;;;5.90;;
75297;SDS011;63896;45.990;18.688;2022-12-11T05:17:45;12.45;;;6.82;;
75297;SDS011;63896;45.990;18.688;2022-12-11T05:20:55;11.65;;;5.90;;
75297;SDS011;63896;45.990;18.688;2022-12-11T05:23:59;11.32;;;5.22;;
75297;SDS011;63896;45.990;18.688;2022-12-11T05:27:02;10.37;;;4.60;;
75297;SDS011;63896;45.990;18.688;2022-12-11T05:30:05;12.17;;;5.47;;
75297;SDS011;63896;45.990;18.688;2022-12-11T05:33:09;14.43;;;5.85;;
75297;SDS011;63896;45.990;18.688;2022-12-11T05:36:16;13.50;;;5.68;;
75297;SDS011;63896;45.990;18.688;2022-12-11T05:39:21;14.80;;;6.18;;
75297;SDS011;63896;45.990;18.688;2022-12-11T05:42:24;12.50;;;5.90;;
75297;SDS011;63896;45.990;18.688;2022-12-11T05:45:30;10.73;;;5.20;;
75297;SDS011;63896;45.990;18.688;2022-12-11T05:48:34;14.38;;;5.75;;
75297;SDS011;63896;45.990;18.688;2022-12-11T05:51:38;14.30;;;6.30;;
75297;SDS011;63896;45.990;18.688;2022-12-11T05:54:41;14.07;;;5.88;;
75297;SDS011;63896;45.990;18.688;2022-12-11T05:57:43;12.17;;;6.23;;
75297;SDS011;63896;45.990;18.688;2022-12-11T06:00:48;12.30;;;5.80;;
75297;SDS011;63896;45.990;18.688;2022-12-11T06:03:51;13.40;;;5.88;;
75297;SDS011;63896;45.990;18.688;2022-12-11T06:06:55;14.50;;;6.40;;
75297;SDS011;63896;45.990;18.688;2022-12-11T06:09:58;14.40;;;5.93;;
75297;SDS011;63896;45.990;18.688;2022-12-11T06:13:01;15.63;;;5.97;;
75297;SDS011;63896;45.990;18.688;2022-12-11T06:16:04;13.83;;;6.17;;
75297;SDS011;63896;45.990;18.688;2022-12-11T06:19:14;14.73;;;5.80;;
75297;SDS011;63896;45.990;18.688;2022-12-11T06:22:20;13.27;;;5.90;;
75297;SDS011;63896;45.990;18.688;2022-12-11T06:25:23;14.02;;;6.20;;
75297;SDS011;63896;45.990;18.688;2022-12-11T06:28:26;15.60;;;5.73;;
75297;SDS011;63896;45.990;18.688;2022-12-11T06:31:29;16.20;;;6.70;;
75297;SDS011;63896;45.990;18.688;2022-12-11T06:34:32;18.77;;;8.63;;
75297;SDS011;63896;45.990;18.688;2022-12-11T06:37:35;13.88;;;6.65;;
75297;SDS011;63896;45.990;18.688;2022-12-11T06:40:40;16.75;;;6.88;;
75297;SDS011;63896;45.990;18.688;2022-12-11T06:43:43;14.53;;;6.40;;
75297;SDS011;63896;45.990;18.688;2022-12-11T06:46:46;15.60;;;6.60;;
75297;SDS011;63896;45.990;18.688;2022-12-11T06:49:49;19.02;;;7.50;;
75297;SDS011;63896;45.990;18.688;2022-12-11T06:52:51;16.80;;;6.60;;
75297;SDS011;63896;45.990;18.688;2022-12-11T06:55:54;16.80;;;6.78;;
75297;SDS011;63896;45.990;18.688;2022-12-11T06:58:57;14.37;;;6.50;;
75297;SDS011;63896;45.990;18.688;2022-12-11T07:02:17;17.33;;;7.20;;
75297;SDS011;63896;45.990;18.688;2022-12-11T07:05:21;14.38;;;5.45;;
75297;SDS011;63896;45.990;18.688;2022-12-11T07:08:26;15.82;;;6.78;;
75297;SDS011;63896;45.990;18.688;2022-12-11T07:11:30;17.00;;;7.00;;
75297;SDS011;63896;45.990;18.688;2022-12-11T07:14:33;17.20;;;7.30;;
75297;SDS011;63896;45.990;18.688;2022-12-11T07:17:36;16.97;;;6.73;;
75297;SDS011;63896;45.990;18.688;2022-12-11T07:20:39;18.92;;;7.60;;
75297;SDS011;63896;45.990;18.688;2022-12-11T07:23:42;18.30;;;7.38;;
75297;SDS011;63896;45.990;18.688;2022-12-11T07:26:45;18.00;;;7.82;;
75297;SDS011;63896;45.990;18.688;2022-12-11T07:29:49;22.50;;;9.50;;
75297;SDS011;63896;45.990;18.688;2022-12-11T07:32:52;24.07;;;9.43;;
75297;SDS011;63896;45.990;18.688;2022-12-11T07:35:55;27.88;;;10.88;;
75297;SDS011;63896;45.990;18.688;2022-12-11T07:38:59;21.55;;;9.02;;
75297;SDS011;63896;45.990;18.688;2022-12-11T07:42:03;25.50;;;10.43;;
75297;SDS011;63896;45.990;18.688;2022-12-11T07:45:06;20.63;;;8.77;;
75297;SDS011;63896;45.990;18.688;2022-12-11T07:48:10;23.40;;;9.07;;
75297;SDS011;63896;45.990;18.688;2022-12-11T07:51:18;21.70;;;9.40;;
75297;SDS011;63896;45.990;18.688;2022-12-11T07:54:28;26.70;;;11.07;;
75297;SDS011;63896;45.990;18.688;2022-12-11T07:57:30;28.77;;;11.27;;
75297;SDS011;63896;45.990;18.688;2022-12-11T08:00:34;17.93;;;8.37;;
75297;SDS011;63896;45.990;18.688;2022-12-11T08:03:37;21.27;;;9.23;;
75297;SDS011;63896;45.990;18.688;2022-12-11T08:06:41;20.40;;;8.32;;
75297;SDS011;63896;45.990;18.688;2022-12-11T08:09:45;19.67;;;8.85;;
75297;SDS011;63896;45.990;18.688;2022-12-11T08:12:48;21.13;;;8.65;;
75297;SDS011;63896;45.990;18.688;2022-12-11T08:15:51;23.53;;;9.73;;
75297;SDS011;63896;45.990;18.688;2022-12-11T08:18:56;20.40;;;9.00;;
75297;SDS011;63896;45.990;18.688;2022-12-11T08:21:59;20.42;;;9.32;;
75297;SDS011;63896;45.990;18.688;2022-12-11T08:25:03;23.33;;;9.35;;
75297;SDS011;63896;45.990;18.688;2022-12-11T08:28:06;22.10;;;9.98;;
75297;SDS011;63896;45.990;18.688;2022-12-11T08:31:10;23.10;;;10.23;;
75297;SDS011;63896;45.990;18.688;2022-12-11T08:34:15;23.50;;;10.07;;
75297;SDS011;63896;45.990;18.688;2022-12-11T08:37:17;23.17;;;9.65;;
75297;SDS011;63896;45.990;18.688;2022-12-11T08:40:20;23.92;;;9.80;;
75297;SDS011;63896;45.990;18.688;2022-12-11T08:43:23;24.67;;;9.27;;
75297;SDS011;63896;45.990;18.688;2022-12-11T08:46:27;16.00;;;6.80;;
75297;SDS011;63896;45.990;18.688;2022-12-11T08:49:32;18.77;;;8.00;;
75297;SDS011;63896;45.990;18.688;2022-12-11T08:52:36;21.48;;;9.60;;
75297;SDS011;63896;45.990;18.688;2022-12-11T08:55:38;24.40;;;9.90;;
75297;SDS011;63896;45.990;18.688;2022-12-11T08:58:42;20.13;;;8.30;;
75297;SDS011;63896;45.990;18.688;2022-12-11T09:01:45;20.90;;;9.73;;
75297;SDS011;63896;45.990;18.688;2022-12-11T09:04:48;23.40;;;9.13;;
75297;SDS011;63896;45.990;18.688;2022-12-11T09:07:51;24.98;;;9.88;;
75297;SDS011;63896;45.990;18.688;2022-12-11T09:10:54;20.42;;;7.90;;
75297;SDS011;63896;45.990;18.688;2022-12-11T09:13:57;18.25;;;8.30;;
75297;SDS011;63896;45.990;18.688;2022-12-11T09:17:08;17.97;;;7.90;;
75297;SDS011;63896;45.990;18.688;2022-12-11T09:20:11;20.23;;;9.73;;
75297;SDS011;63896;45.990;18.688;2022-12-11T09:23:13;22.70;;;8.93;;
75297;SDS011;63896;45.990;18.688;2022-12-11T09:26:19;18.20;;;7.80;;
75297;SDS011;63896;45.990;18.688;2022-12-11T09:29:23;16.80;;;6.82;;
75297;SDS011;63896;45.990;18.688;2022-12-11T09:32:26;19.00;;;8.20;;
75297;SDS011;63896;45.990;18.688;2022-12-11T09:35:29;25.23;;;9.60;;
75297;SDS011;63896;45.990;18.688;2022-12-11T09:38:32;21.17;;;9.02;;
75297;SDS011;63896;45.990;18.688;2022-12-11T09:44:55;15.18;;;6.97;;
75297;SDS011;63896;45.990;18.688;2022-12-11T09:48:01;16.83;;;8.03;;
75297;SDS011;63896;45.990;18.688;2022-12-11T09:51:09;16.77;;;7.70;;
75297;SDS011;63896;45.990;18.688;2022-12-11T09:54:20;17.40;;;8.25;;
75297;SDS011;63896;45.990;18.688;2022-12-11T10:01:32;18.45;;;8.50;;
75297;SDS011;63896;45.990;18.688;2022-12-11T10:08:12;18.57;;;7.13;;
75297;SDS011;63896;45.990;18.688;2022-12-11T10:11:49;21.17;;;8.50;;
75297;SDS011;63896;45.990;18.688;2022-12-11T10:18:32;17.58;;;7.47;;
75297;SDS011;63896;45.990;18.688;2022-12-11T10:21:37;18.77;;;8.33;;
75297;SDS011;63896;45.990;18.688;2022-12-11T10:24:44;17.70;;;8.10;;
75297;SDS011;63896;45.990;18.688;2022-12-11T10:28:17;17.58;;;7.60;;
75297;SDS011;63896;45.990;18.688;2022-12-11T10:34:35;18.67;;;8.25;;
75297;SDS011;63896;45.990;18.688;2022-12-11T10:37:41;13.17;;;7.43;;
75297;SDS011;63896;45.990;18.688;2022-12-11T10:41:09;18.20;;;8.10;;
75297;SDS011;63896;45.990;18.688;2022-12-11T10:44:23;18.73;;;7.75;;
75297;SDS011;63896;45.990;18.688;2022-12-11T10:47:28;17.95;;;7.72;;
75297;SDS011;63896;45.990;18.688;2022-12-11T10:50:32;21.40;;;9.32;;
75297;SDS011;63896;45.990;18.688;2022-12-11T10:53:35;16.13;;;7.00;;
75297;SDS011;63896;45.990;18.688;2022-12-11T10:56:38;14.50;;;7.13;;
75297;SDS011;63896;45.990;18.688;2022-12-11T10:59:48;13.88;;;6.80;;
75297;SDS011;63896;45.990;18.688;2022-12-11T11:02:51;23.42;;;10.38;;
75297;SDS011;63896;45.990;18.688;2022-12-11T11:06:29;18.58;;;7.93;;
75297;SDS011;63896;45.990;18.688;2022-12-11T11:09:33;17.47;;;7.70;;
75297;SDS011;63896;45.990;18.688;2022-12-11T11:12:39;15.53;;;7.53;;
75297;SDS011;63896;45.990;18.688;2022-12-11T11:15:43;22.05;;;9.70;;
75297;SDS011;63896;45.990;18.688;2022-12-11T11:18:51;19.65;;;9.27;;
75297;SDS011;63896;45.990;18.688;2022-12-11T11:22:17;16.10;;;6.65;;
75297;SDS011;63896;45.990;18.688;2022-12-11T11:25:22;15.33;;;7.23;;
75297;SDS011;63896;45.990;18.688;2022-12-11T11:28:33;22.47;;;9.87;;
75297;SDS011;63896;45.990;18.688;2022-12-11T11:31:39;22.15;;;8.93;;
75297;SDS011;63896;45.990;18.688;2022-12-11T11:34:43;25.05;;;10.88;;
75297;SDS011;63896;45.990;18.688;2022-12-11T11:37:57;21.75;;;9.20;;
75297;SDS011;63896;45.990;18.688;2022-12-11T11:41:15;14.70;;;6.67;;
75297;SDS011;63896;45.990;18.688;2022-12-11T11:44:26;16.77;;;7.87;;
75297;SDS011;63896;45.990;18.688;2022-12-11T11:48:04;21.92;;;9.65;;
75297;SDS011;63896;45.990;18.688;2022-12-11T11:55:26;14.73;;;7.50;;
75297;SDS011;63896;45.990;18.688;2022-12-11T11:58:26;16.33;;;7.50;;
75297;SDS011;63896;45.990;18.688;2022-12-11T12:01:46;16.80;;;8.03;;
75297;SDS011;63896;45.990;18.688;2022-12-11T12:04:49;27.20;;;12.30;;
75297;SDS011;63896;45.990;18.688;2022-12-11T12:14:17;63.73;;;18.10;;
75297;SDS011;63896;45.990;18.688;2022-12-11T12:17:57;71.67;;;20.80;;
75297;SDS011;63896;45.990;18.688;2022-12-11T12:21:11;48.92;;;16.30;;
75297;SDS011;63896;45.990;18.688;2022-12-11T12:31:41;28.43;;;12.60;;
75297;SDS011;63896;45.990;18.688;2022-12-11T12:38:18;19.73;;;8.57;;
75297;SDS011;63896;45.990;18.688;2022-12-11T12:41:55;18.15;;;6.93;;
75297;SDS011;63896;45.990;18.688;2022-12-11T12:45:28;17.85;;;7.65;;
75297;SDS011;63896;45.990;18.688;2022-12-11T12:48:49;16.77;;;7.63;;
75297;SDS011;63896;45.990;18.688;2022-12-11T12:51:56;16.77;;;7.80;;
75297;SDS011;63896;45.990;18.688;2022-12-11T12:55:05;18.08;;;8.55;;
75297;SDS011;63896;45.990;18.688;2022-12-11T13:01:28;16.48;;;7.93;;
75297;SDS011;63896;45.990;18.688;2022-12-11T13:04:37;12.70;;;5.30;;
75297;SDS011;63896;45.990;18.688;2022-12-11T13:08:01;14.03;;;6.87;;
75297;SDS011;63896;45.990;18.688;2022-12-11T13:11:07;17.73;;;7.30;;
75297;SDS011;63896;45.990;18.688;2022-12-11T13:20:22;12.83;;;5.90;;
75297;SDS011;63896;45.990;18.688;2022-12-11T13:23:31;15.10;;;6.60;;
75297;SDS011;63896;45.990;18.688;2022-12-11T13:26:36;16.80;;;6.53;;
75297;SDS011;63896;45.990;18.688;2022-12-11T13:29:40;12.52;;;5.82;;
75297;SDS011;63896;45.990;18.688;2022-12-11T13:32:48;13.95;;;6.07;;
75297;SDS011;63896;45.990;18.688;2022-12-11T13:36:13;19.30;;;8.40;;
75297;SDS011;63896;45.990;18.688;2022-12-11T13:39:26;15.10;;;6.53;;
75297;SDS011;63896;45.990;18.688;2022-12-11T13:42:37;16.58;;;7.25;;
75297;SDS011;63896;45.990;18.688;2022-12-11T13:45:49;18.55;;;8.00;;
75297;SDS011;63896;45.990;18.688;2022-12-11T13:48:58;19.42;;;7.05;;
75297;SDS011;63896;45.990;18.688;2022-12-11T13:52:04;18.27;;;7.87;;
75297;SDS011;63896;45.990;18.688;2022-12-11T13:55:15;21.00;;;7.80;;
75297;SDS011;63896;45.990;18.688;2022-12-11T13:58:23;19.35;;;7.88;;
75297;SDS011;63896;45.990;18.688;2022-12-11T14:01:28;17.88;;;7.00;;
75297;SDS011;63896;45.990;18.688;2022-12-11T14:04:34;15.98;;;6.70;;
75297;SDS011;63896;45.990;18.688;2022-12-11T14:07:43;16.30;;;6.03;;
75297;SDS011;63896;45.990;18.688;2022-12-11T14:10:53;16.40;;;6.87;;
75297;SDS011;63896;45.990;18.688;2022-12-11T14:13:58;14.27;;;7.18;;
75297;SDS011;63896;45.990;18.688;2022-12-11T14:17:03;17.10;;;7.40;;
75297;SDS011;63896;45.990;18.688;2022-12-11T14:20:06;18.10;;;8.88;;
75297;SDS011;63896;45.990;18.688;2022-12-11T14:23:23;16.73;;;7.63;;
75297;SDS011;63896;45.990;18.688;2022-12-11T14:26:29;17.60;;;9.53;;
75297;SDS011;63896;45.990;18.688;2022-12-11T14:29:34;20.00;;;9.57;;
75297;SDS011;63896;45.990;18.688;2022-12-11T14:32:38;18.48;;;8.07;;
75297;SDS011;63896;45.990;18.688;2022-12-11T14:35:46;16.02;;;7.57;;
75297;SDS011;63896;45.990;18.688;2022-12-11T14:38:54;15.70;;;7.40;;
75297;SDS011;63896;45.990;18.688;2022-12-11T14:42:03;16.07;;;8.10;;
75297;SDS011;63896;45.990;18.688;2022-12-11T14:45:21;16.58;;;7.50;;
75297;SDS011;63896;45.990;18.688;2022-12-11T14:48:36;16.20;;;7.78;;
75297;SDS011;63896;45.990;18.688;2022-12-11T14:51:46;17.02;;;7.90;;
75297;SDS011;63896;45.990;18.688;2022-12-11T14:54:52;19.70;;;9.07;;
75297;SDS011;63896;45.990;18.688;2022-12-11T14:58:06;14.23;;;6.73;;
75297;SDS011;63896;45.990;18.688;2022-12-11T15:01:34;19.70;;;9.48;;
75297;SDS011;63896;45.990;18.688;2022-12-11T15:04:39;20.92;;;10.18;;
75297;SDS011;63896;45.990;18.688;2022-12-11T15:07:42;20.58;;;8.52;;
75297;SDS011;63896;45.990;18.688;2022-12-11T15:10:59;16.93;;;7.53;;
75297;SDS011;63896;45.990;18.688;2022-12-11T15:14:08;15.23;;;7.43;;
75297;SDS011;63896;45.990;18.688;2022-12-11T15:17:13;15.10;;;7.53;;
75297;SDS011;63896;45.990;18.688;2022-12-11T15:20:27;17.60;;;7.55;;
75297;SDS011;63896;45.990;18.688;2022-12-11T15:23:31;14.25;;;6.82;;
75297;SDS011;63896;45.990;18.688;2022-12-11T15:26:45;12.50;;;6.60;;
75297;SDS011;63896;45.990;18.688;2022-12-11T15:29:49;16.53;;;8.27;;
75297;SDS011;63896;45.990;18.688;2022-12-11T15:39:31;20.65;;;10.13;;
75297;SDS011;63896;45.990;18.688;2022-12-11T15:42:35;26.87;;;12.87;;
75297;SDS011;63896;45.990;18.688;2022-12-11T15:45:41;43.93;;;14.20;;
75297;SDS011;63896;45.990;18.688;2022-12-11T15:48:46;32.03;;;12.63;;
75297;SDS011;63896;45.990;18.688;2022-12-11T15:51:50;22.90;;;9.88;;
75297;SDS011;63896;45.990;18.688;2022-12-11T15:54:53;19.17;;;7.25;;
75297;SDS011;63896;45.990;18.688;2022-12-11T15:57:57;11.57;;;5.97;;
75297;SDS011;63896;45.990;18.688;2022-12-11T16:01:03;20.33;;;9.20;;
75297;SDS011;63896;45.990;18.688;2022-12-11T16:04:06;20.17;;;8.38;;
75297;SDS011;63896;45.990;18.688;2022-12-11T16:07:19;15.82;;;6.93;;
75297;SDS011;63896;45.990;18.688;2022-12-11T16:10:24;16.55;;;6.75;;
75297;SDS011;63896;45.990;18.688;2022-12-11T16:13:28;18.17;;;8.07;;
75297;SDS011;63896;45.990;18.688;2022-12-11T16:16:31;18.87;;;8.87;;
75297;SDS011;63896;45.990;18.688;2022-12-11T16:19:34;15.90;;;7.70;;
75297;SDS011;63896;45.990;18.688;2022-12-11T16:22:38;18.83;;;7.97;;
75297;SDS011;63896;45.990;18.688;2022-12-11T16:25:41;18.48;;;8.27;;
75297;SDS011;63896;45.990;18.688;2022-12-11T16:28:45;15.13;;;7.77;;
75297;SDS011;63896;45.990;18.688;2022-12-11T16:31:48;17.77;;;8.90;;
75297;SDS011;63896;45.990;18.688;2022-12-11T16:34:51;16.95;;;8.10;;
75297;SDS011;63896;45.990;18.688;2022-12-11T16:37:55;19.15;;;8.98;;
75297;SDS011;63896;45.990;18.688;2022-12-11T16:40:59;18.45;;;8.98;;
75297;SDS011;63896;45.990;18.688;2022-12-11T16:44:03;16.13;;;8.03;;
75297;SDS011;63896;45.990;18.688;2022-12-11T16:47:06;14.70;;;7.27;;
75297;SDS011;63896;45.990;18.688;2022-12-11T16:50:10;16.08;;;6.85;;
75297;SDS011;63896;45.990;18.688;2022-12-11T16:53:15;15.90;;;8.05;;
75297;SDS011;63896;45.990;18.688;2022-12-11T16:56:18;16.70;;;8.20;;
75297;SDS011;63896;45.990;18.688;2022-12-11T16:59:22;16.27;;;7.57;;
75297;SDS011;63896;45.990;18.688;2022-12-11T17:02:25;14.63;;;6.73;;
75297;SDS011;63896;45.990;18.688;2022-12-11T17:05:28;12.32;;;6.18;;
75297;SDS011;63896;45.990;18.688;2022-12-11T17:08:31;11.10;;;5.85;;
75297;SDS011;63896;45.990;18.688;2022-12-11T17:11:34;14.35;;;7.22;;
75297;SDS011;63896;45.990;18.688;2022-12-11T17:14:37;14.10;;;7.30;;
75297;SDS011;63896;45.990;18.688;2022-12-11T17:17:40;19.77;;;8.70;;
75297;SDS011;63896;45.990;18.688;2022-12-11T17:20:44;15.80;;;7.63;;
75297;SDS011;63896;45.990;18.688;2022-12-11T17:23:48;16.05;;;7.40;;
75297;SDS011;63896;45.990;18.688;2022-12-11T17:26:53;15.80;;;6.75;;
75297;SDS011;63896;45.990;18.688;2022-12-11T17:29:57;17.37;;;7.57;;
75297;SDS011;63896;45.990;18.688;2022-12-11T17:33:01;20.57;;;8.87;;
75297;SDS011;63896;45.990;18.688;2022-12-11T17:36:05;15.48;;;6.60;;
75297;SDS011;63896;45.990;18.688;2022-12-11T17:39:09;16.67;;;7.53;;
75297;SDS011;63896;45.990;18.688;2022-12-11T17:42:12;14.65;;;7.53;;
75297;SDS011;63896;45.990;18.688;2022-12-11T17:45:15;17.93;;;8.33;;
75297;SDS011;63896;45.990;18.688;2022-12-11T17:48:18;14.87;;;7.37;;
75297;SDS011;63896;45.990;18.688;2022-12-11T17:51:24;16.98;;;7.93;;
75297;SDS011;63896;45.990;18.688;2022-12-11T17:54:27;13.85;;;6.57;;
75297;SDS011;63896;45.990;18.688;2022-12-11T17:57:30;14.43;;;6.78;;
75297;SDS011;63896;45.990;18.688;2022-12-11T18:00:35;13.57;;;5.97;;
75297;SDS011;63896;45.990;18.688;2022-12-11T18:03:43;13.67;;;6.70;;
75297;SDS011;63896;45.990;18.688;2022-12-11T18:06:46;16.35;;;6.75;;
75297;SDS011;63896;45.990;18.688;2022-12-11T18:09:49;14.20;;;6.72;;
75297;SDS011;63896;45.990;18.688;2022-12-11T18:12:52;16.48;;;7.75;;
75297;SDS011;63896;45.990;18.688;2022-12-11T18:16:06;17.17;;;7.57;;
75297;SDS011;63896;45.990;18.688;2022-12-11T18:19:13;16.47;;;7.20;;
75297;SDS011;63896;45.990;18.688;2022-12-11T18:22:17;19.75;;;7.68;;
75297;SDS011;63896;45.990;18.688;2022-12-11T18:25:20;17.48;;;7.90;;
75297;SDS011;63896;45.990;18.688;2022-12-11T18:28:26;11.05;;;5.43;;
75297;SDS011;63896;45.990;18.688;2022-12-11T18:31:29;14.93;;;6.40;;
75297;SDS011;63896;45.990;18.688;2022-12-11T18:34:32;17.97;;;7.27;;
75297;SDS011;63896;45.990;18.688;2022-12-11T18:37:36;17.52;;;7.68;;
75297;SDS011;63896;45.990;18.688;2022-12-11T18:40:40;14.85;;;7.10;;
75297;SDS011;63896;45.990;18.688;2022-12-11T18:43:43;16.40;;;6.75;;
75297;SDS011;63896;45.990;18.688;2022-12-11T18:46:47;17.13;;;6.40;;
75297;SDS011;63896;45.990;18.688;2022-12-11T18:49:51;17.60;;;8.13;;
75297;SDS011;63896;45.990;18.688;2022-12-11T18:52:55;16.27;;;7.13;;
75297;SDS011;63896;45.990;18.688;2022-12-11T18:55:58;14.55;;;7.00;;
75297;SDS011;63896;45.990;18.688;2022-12-11T18:59:03;13.57;;;6.72;;
75297;SDS011;63896;45.990;18.688;2022-12-11T19:02:06;14.37;;;7.10;;
75297;SDS011;63896;45.990;18.688;2022-12-11T19:05:10;14.80;;;6.87;;
75297;SDS011;63896;45.990;18.688;2022-12-11T19:08:14;14.98;;;6.78;;
75297;SDS011;63896;45.990;18.688;2022-12-11T19:11:19;16.95;;;7.40;;
75297;SDS011;63896;45.990;18.688;2022-12-11T19:14:24;14.93;;;6.30;;
75297;SDS011;63896;45.990;18.688;2022-12-11T19:17:27;16.90;;;7.47;;
75297;SDS011;63896;45.990;18.688;2022-12-11T19:20:30;18.27;;;8.33;;
75297;SDS011;63896;45.990;18.688;2022-12-11T19:23:51;19.02;;;8.95;;
75297;SDS011;63896;45.990;18.688;2022-12-11T19:26:55;17.13;;;7.93;;